createdAt,value
2023-03-30T00:01:11.314Z,65.38
2023-03-30T00:03:39.278Z,65.72
2023-03-30T00:06:08.846Z,65.35
2023-03-30T00:08:35.839Z,65.43
2023-03-30T00:11:07.793Z,64.89
2023-03-30T00:13:36.540Z,65.00
2023-03-30T00:16:06.184Z,65.20
2023-03-30T00:18:34.534Z,65.15
2023-03-30T00:21:04.234Z,65.01
2023-03-30T00:23:32.250Z,64.96
2023-03-30T00:26:00.052Z,65.00
2023-03-30T00:28:27.090Z,65.10
2023-03-30T00:30:53.964Z,64.99
2023-03-30T00:33:30.274Z,64.80
2023-03-30T00:36:04.922Z,64.98
2023-03-30T00:38:31.858Z,64.72
2023-03-30T00:41:01.870Z,64.00
2023-03-30T00:43:29.712Z,64.33
2023-03-30T00:45:57.513Z,63.99
2023-03-30T00:48:40.703Z,64.01
2023-03-30T00:51:12.190Z,63.95
2023-03-30T00:53:46.108Z,64.29
2023-03-30T00:56:16.996Z,64.17
2023-03-30T00:58:45.298Z,63.71
2023-03-30T01:01:16.026Z,63.88
2023-03-30T01:03:48.422Z,63.93
2023-03-30T01:06:22.048Z,63.95
2023-03-30T01:08:50.506Z,64.03
2023-03-30T01:11:17.375Z,63.69
2023-03-30T01:13:54.483Z,63.60
2023-03-30T01:16:28.749Z,63.64
2023-03-30T01:19:45.253Z,63.91
2023-03-30T01:22:58.948Z,64.04
2023-03-30T01:26:13.291Z,64.21
2023-03-30T01:29:05.004Z,63.96
2023-03-30T01:32:12.768Z,64.09
2023-03-30T01:35:13.555Z,64.16
2023-03-30T01:38:06.943Z,64.45
2023-03-30T01:40:46.107Z,64.47
2023-03-30T01:43:21.213Z,64.34
2023-03-30T01:45:53.765Z,64.28
2023-03-30T01:48:44.530Z,64.34
2023-03-30T01:51:20.597Z,64.18
2023-03-30T01:54:10.993Z,64.46
2023-03-30T01:56:44.385Z,64.25
2023-03-30T01:59:14.864Z,64.03
2023-03-30T02:01:43.170Z,64.06
2023-03-30T02:04:11.822Z,64.54
2023-03-30T02:06:46.082Z,64.07
2023-03-30T02:09:20.785Z,63.96
2023-03-30T02:11:51.322Z,63.59
2023-03-30T02:14:22.895Z,63.17
2023-03-30T02:16:56.020Z,63.42
2023-03-30T02:19:23.169Z,63.81
2023-03-30T02:21:50.534Z,63.95
2023-03-30T02:24:22.900Z,63.94
2023-03-30T02:26:51.838Z,63.64
2023-03-30T02:29:21.141Z,63.95
2023-03-30T02:31:53.478Z,64.25
2023-03-30T02:34:45.707Z,64.22
2023-03-30T02:37:30.450Z,64.74
2023-03-30T02:40:42.070Z,64.60
2023-03-30T02:43:45.021Z,64.29
2023-03-30T02:46:42.562Z,64.29
2023-03-30T02:49:24.666Z,64.24
2023-03-30T02:52:13.884Z,64.34
2023-03-30T02:54:59.032Z,64.72
2023-03-30T02:57:35.303Z,64.87
2023-03-30T03:00:44.303Z,64.67
2023-03-30T03:03:24.086Z,64.77
2023-03-30T03:05:56.038Z,64.43
2023-03-30T03:08:25.153Z,64.74
2023-03-30T03:10:52.197Z,64.52
2023-03-30T03:13:20.789Z,64.71
2023-03-30T03:15:49.534Z,64.88
2023-03-30T03:18:16.740Z,64.65
2023-03-30T03:20:43.668Z,64.52
2023-03-30T03:23:10.771Z,64.35
2023-03-30T03:25:37.754Z,64.94
2023-03-30T03:28:04.799Z,64.83
2023-03-30T03:30:31.680Z,64.65
2023-03-30T03:32:58.703Z,64.82
2023-03-30T03:35:25.661Z,66.05
2023-03-30T03:37:52.483Z,65.65
2023-03-30T03:40:19.335Z,65.49
2023-03-30T03:42:46.139Z,66.03
2023-03-30T03:45:13.083Z,66.16
2023-03-30T03:47:40.195Z,67.78
2023-03-30T03:50:09.885Z,68.37
2023-03-30T03:52:37.214Z,68.70
2023-03-30T03:55:05.029Z,68.99
2023-03-30T03:57:32.018Z,69.07
2023-03-30T03:59:59.881Z,68.85
2023-03-30T04:02:27.837Z,68.78
2023-03-30T04:04:54.940Z,68.89
2023-03-30T04:07:22.047Z,68.33
2023-03-30T04:09:49.084Z,68.30
2023-03-30T04:12:16.081Z,68.54
2023-03-30T04:14:42.858Z,68.11
2023-03-30T04:17:09.678Z,68.67
2023-03-30T04:19:37.568Z,68.79
2023-03-30T04:22:05.985Z,68.97
2023-03-30T04:24:35.539Z,69.07
2023-03-30T04:27:02.943Z,69.30
2023-03-30T04:29:30.804Z,69.26
2023-03-30T04:32:02.718Z,69.34
2023-03-30T04:34:30.901Z,69.36
2023-03-30T04:36:58.063Z,69.02
2023-03-30T04:39:30.224Z,69.37
2023-03-30T04:41:57.227Z,68.54
2023-03-30T04:44:24.211Z,67.88
2023-03-30T04:46:51.089Z,67.99
2023-03-30T04:49:17.982Z,67.78
2023-03-30T04:51:44.868Z,67.42
2023-03-30T04:54:11.844Z,67.83
2023-03-30T04:56:38.739Z,69.63
2023-03-30T04:59:05.700Z,69.36
2023-03-30T05:01:32.611Z,69.17
2023-03-30T05:03:59.485Z,69.27
2023-03-30T05:06:27.117Z,69.21
2023-03-30T05:08:54.013Z,69.45
2023-03-30T05:11:20.877Z,69.17
2023-03-30T05:13:47.696Z,69.92
2023-03-30T05:16:14.706Z,69.51
2023-03-30T05:18:41.618Z,69.25
2023-03-30T05:21:08.453Z,69.60
2023-03-30T05:23:36.169Z,69.61
2023-03-30T05:26:04.488Z,70.89
2023-03-30T05:28:32.588Z,71.41
2023-03-30T05:31:00.082Z,71.62
2023-03-30T05:33:27.078Z,71.06
2023-03-30T05:35:54.122Z,70.42
2023-03-30T05:38:21.129Z,71.30
2023-03-30T05:40:53.519Z,70.69
2023-03-30T05:43:21.040Z,71.42
2023-03-30T05:45:48.381Z,71.68
2023-03-30T05:48:15.268Z,70.91
2023-03-30T05:50:42.867Z,71.93
2023-03-30T05:53:09.871Z,71.56
2023-03-30T05:55:36.711Z,71.96
2023-03-30T05:58:03.962Z,71.30
2023-03-30T06:00:33.349Z,71.24
2023-03-30T06:03:00.640Z,72.45
2023-03-30T06:05:27.544Z,72.17
2023-03-30T06:07:54.428Z,70.94
2023-03-30T06:10:21.351Z,70.55
2023-03-30T06:12:48.200Z,70.76
2023-03-30T06:15:15.267Z,70.37
2023-03-30T06:17:42.749Z,70.65
2023-03-30T06:20:13.243Z,70.43
2023-03-30T06:22:43.926Z,70.16
2023-03-30T06:25:10.990Z,70.07
2023-03-30T06:27:37.794Z,70.09
2023-03-30T06:30:05.264Z,70.02
2023-03-30T06:32:32.349Z,69.24
2023-03-30T06:34:59.187Z,69.72
2023-03-30T06:37:26.030Z,69.41
2023-03-30T06:39:53.479Z,69.51
2023-03-30T06:42:20.750Z,68.71
2023-03-30T06:44:49.856Z,68.73
2023-03-30T06:47:16.888Z,69.18
2023-03-30T06:49:43.720Z,69.26
2023-03-30T06:52:11.422Z,69.31
2023-03-30T06:54:38.304Z,68.96
2023-03-30T06:57:05.245Z,68.69
2023-03-30T06:59:35.036Z,68.66
2023-03-30T07:02:03.537Z,68.83
2023-03-30T07:04:30.594Z,68.88
2023-03-30T07:06:57.460Z,68.65
2023-03-30T07:09:25.460Z,68.48
2023-03-30T07:11:53.878Z,68.45
2023-03-30T07:14:23.117Z,67.94
2023-03-30T07:16:51.138Z,68.16
2023-03-30T07:19:18.109Z,67.62
2023-03-30T07:21:45.080Z,67.51
2023-03-30T07:24:11.999Z,67.24
2023-03-30T07:26:38.814Z,67.28
2023-03-30T07:29:06.775Z,66.67
2023-03-30T07:31:33.743Z,65.96
2023-03-30T07:34:02.967Z,65.32
2023-03-30T07:36:29.872Z,64.84
2023-03-30T07:38:58.480Z,64.33
2023-03-30T07:41:25.349Z,63.86
2023-03-30T07:43:52.241Z,63.52
2023-03-30T07:46:19.071Z,63.86
2023-03-30T07:48:45.975Z,63.84
2023-03-30T07:51:13.940Z,63.57
2023-03-30T07:53:41.032Z,63.44
2023-03-30T07:56:08.022Z,63.97
2023-03-30T07:58:35.380Z,64.14
2023-03-30T08:01:03.567Z,63.98
2023-03-30T08:03:32.034Z,64.36
2023-03-30T08:06:04.787Z,65.30
2023-03-30T08:08:33.592Z,65.55
2023-03-30T08:11:01.200Z,65.62
2023-03-30T08:13:28.282Z,66.36
2023-03-30T08:15:55.945Z,65.70
2023-03-30T08:18:22.815Z,65.85
2023-03-30T08:20:54.298Z,65.53
2023-03-30T08:23:21.986Z,65.96
2023-03-30T08:25:52.637Z,64.97
2023-03-30T08:28:20.175Z,64.64
2023-03-30T08:30:47.410Z,64.40
2023-03-30T08:33:15.800Z,64.77
2023-03-30T08:35:47.703Z,63.89
2023-03-30T08:38:17.159Z,62.82
2023-03-30T08:40:47.009Z,63.63
2023-03-30T08:43:50.925Z,63.30
2023-03-30T08:46:18.700Z,62.28
2023-03-30T08:48:46.886Z,64.00
2023-03-30T08:51:24.597Z,63.65
2023-03-30T08:53:58.523Z,66.21
2023-03-30T08:56:42.587Z,64.26
2023-03-30T08:59:29.771Z,63.56
2023-03-30T09:02:23.429Z,63.18
2023-03-30T09:05:14.805Z,62.12
2023-03-30T09:08:03.892Z,62.06
2023-03-30T09:10:42.317Z,61.21
2023-03-30T09:13:16.136Z,60.77
2023-03-30T09:15:53.509Z,60.32
2023-03-30T09:18:35.650Z,59.96
2023-03-30T09:21:06.261Z,58.24
2023-03-30T09:23:34.250Z,56.32
2023-03-30T09:26:34.485Z,57.72
2023-03-30T09:29:49.042Z,55.67
2023-03-30T09:32:41.923Z,54.65
2023-03-30T09:35:18.855Z,54.41
2023-03-30T09:37:46.340Z,54.24
2023-03-30T09:41:06.629Z,53.68
2023-03-30T09:43:46.263Z,53.34
2023-03-30T09:46:16.306Z,54.60
2023-03-30T09:48:48.697Z,54.75
2023-03-30T09:51:31.195Z,53.05
2023-03-30T09:54:04.714Z,52.60
2023-03-30T09:56:34.525Z,52.28
2023-03-30T09:59:31.325Z,51.66
2023-03-30T10:02:13.597Z,51.52
2023-03-30T10:04:52.778Z,51.76
2023-03-30T10:07:31.684Z,53.55
2023-03-30T10:10:04.239Z,52.96
2023-03-30T10:12:31.092Z,53.46
2023-03-30T10:15:04.140Z,53.86
2023-03-30T10:17:31.570Z,53.83
2023-03-30T10:20:27.783Z,52.48
2023-03-30T10:22:59.635Z,53.44
2023-03-30T10:25:33.429Z,51.40
2023-03-30T10:28:04.845Z,53.44
2023-03-30T10:30:32.618Z,55.21
2023-03-30T10:33:02.264Z,54.27
2023-03-30T10:35:37.997Z,54.43
2023-03-30T10:38:07.887Z,54.89
2023-03-30T10:40:38.919Z,54.87
2023-03-30T10:43:14.653Z,55.65
2023-03-30T10:45:48.025Z,56.20
2023-03-30T10:48:34.821Z,56.97
2023-03-30T10:51:27.629Z,56.69
2023-03-30T10:54:04.483Z,55.61
2023-03-30T10:56:43.260Z,56.17
2023-03-30T10:59:54.794Z,55.94
2023-03-30T11:02:34.943Z,54.62
2023-03-30T11:05:15.813Z,54.24
2023-03-30T11:08:07.686Z,54.48
2023-03-30T11:10:48.529Z,55.31
2023-03-30T11:13:39.612Z,55.31
2023-03-30T11:16:26.096Z,55.71
2023-03-30T11:19:11.559Z,56.24
2023-03-30T11:22:29.364Z,56.91
2023-03-30T11:24:59.425Z,57.63
2023-03-30T11:27:39.443Z,58.55
2023-03-30T11:30:22.184Z,59.28
2023-03-30T11:33:26.928Z,59.09
2023-03-30T11:36:19.009Z,59.76
2023-03-30T11:38:58.730Z,60.01
2023-03-30T11:42:04.524Z,59.60
2023-03-30T11:44:32.344Z,59.93
2023-03-30T11:47:20.478Z,60.44
2023-03-30T11:50:24.388Z,61.02
2023-03-30T11:53:13.186Z,61.39
2023-03-30T11:56:11.246Z,61.38
2023-03-30T11:59:05.239Z,62.21
2023-03-30T12:02:08.574Z,62.45
2023-03-30T12:04:50.775Z,62.42
2023-03-30T12:07:45.907Z,64.18
2023-03-30T12:10:33.876Z,65.33
2023-03-30T12:13:01.916Z,63.77
2023-03-30T12:15:58.590Z,64.24
2023-03-30T12:18:39.347Z,64.87
2023-03-30T12:21:35.772Z,65.13
2023-03-30T12:24:28.995Z,65.52
2023-03-30T12:27:05.350Z,65.93
2023-03-30T12:32:29.221Z,65.88
2023-03-30T12:34:58.085Z,65.68
2023-03-30T12:37:35.478Z,65.12
2023-03-30T12:40:22.259Z,65.04
2023-03-30T12:43:05.923Z,64.85
2023-03-30T12:45:34.075Z,65.10
2023-03-30T12:48:42.063Z,64.90
2023-03-30T12:51:53.754Z,63.53
2023-03-30T12:54:57.381Z,64.58
2023-03-30T12:57:50.501Z,64.02
2023-03-30T13:00:40.792Z,62.86
2023-03-30T13:03:33.475Z,62.72
2023-03-30T13:06:02.582Z,62.97
2023-03-30T13:08:39.870Z,62.89
2023-03-30T13:11:14.052Z,64.15
2023-03-30T13:14:15.410Z,65.33
2023-03-30T13:16:51.536Z,64.17
2023-03-30T13:19:28.905Z,63.45
2023-03-30T13:22:12.308Z,63.46
2023-03-30T13:24:42.215Z,63.39
2023-03-30T13:27:14.911Z,63.66
2023-03-30T13:29:49.702Z,63.63
2023-03-30T13:32:33.917Z,63.29
2023-03-30T13:35:29.677Z,63.38
2023-03-30T13:38:26.753Z,64.46
2023-03-30T13:41:26.248Z,63.03
2023-03-30T13:44:29.964Z,62.90
2023-03-30T13:47:09.834Z,63.05
2023-03-30T13:49:42.432Z,63.66
2023-03-30T13:52:38.244Z,63.37
2023-03-30T13:55:16.631Z,63.31
2023-03-30T13:57:44.610Z,63.15
2023-03-30T14:00:52.175Z,63.23
2023-03-30T14:03:44.373Z,63.11
2023-03-30T14:06:14.378Z,64.17
2023-03-30T14:08:47.932Z,64.81
2023-03-30T14:11:46.521Z,64.82
2023-03-30T14:14:23.154Z,63.89
2023-03-30T14:16:51.297Z,63.49
2023-03-30T14:19:37.407Z,63.79
2023-03-30T14:22:19.262Z,63.84
2023-03-30T14:25:04.742Z,66.42
2023-03-30T14:27:38.968Z,65.54
2023-03-30T14:30:19.680Z,64.58
2023-03-30T14:32:46.717Z,63.92
2023-03-30T14:35:20.819Z,64.60
2023-03-30T14:37:52.050Z,63.70
2023-03-30T14:40:22.468Z,63.38
2023-03-30T14:42:50.918Z,62.65
2023-03-30T14:45:19.448Z,61.97
2023-03-30T14:47:48.081Z,62.18
2023-03-30T14:50:16.759Z,61.11
2023-03-30T14:52:46.784Z,60.56
2023-03-30T14:55:23.784Z,60.54
2023-03-30T14:57:51.257Z,59.25
2023-03-30T15:00:22.422Z,60.83
2023-03-30T15:02:59.020Z,58.23
2023-03-30T15:05:34.173Z,56.44
2023-03-30T15:08:03.602Z,56.49
2023-03-30T15:10:44.030Z,59.41
2023-03-30T15:13:40.163Z,60.82
2023-03-30T15:16:07.694Z,61.64
2023-03-30T15:18:36.419Z,61.50
2023-03-30T15:21:03.728Z,62.15
2023-03-30T15:23:41.351Z,63.69
2023-03-30T15:26:09.709Z,62.14
2023-03-30T15:28:53.541Z,63.05
2023-03-30T15:31:20.991Z,61.41
2023-03-30T15:33:53.242Z,61.48
2023-03-30T15:36:25.329Z,61.49
2023-03-30T15:38:58.757Z,59.78
2023-03-30T15:41:56.897Z,61.12
2023-03-30T15:44:24.964Z,60.68
2023-03-30T15:46:56.190Z,58.10
2023-03-30T15:49:40.378Z,57.12
2023-03-30T15:52:19.498Z,56.04
2023-03-30T15:54:55.498Z,54.73
2023-03-30T15:57:32.208Z,54.95
2023-03-30T16:00:12.434Z,54.00
2023-03-30T16:02:47.402Z,54.08
2023-03-30T16:05:22.287Z,53.27
2023-03-30T16:07:49.464Z,53.41
2023-03-30T16:10:27.167Z,51.16
2023-03-30T16:12:56.811Z,49.76
2023-03-30T16:15:27.674Z,49.28
2023-03-30T16:17:54.736Z,50.22
2023-03-30T16:20:31.359Z,51.28
2023-03-30T16:22:58.655Z,51.52
2023-03-30T16:25:38.353Z,51.81
2023-03-30T16:28:18.304Z,53.30
2023-03-30T16:30:48.290Z,53.15
2023-03-30T16:33:15.350Z,52.90
2023-03-30T16:35:42.196Z,52.83
2023-03-30T16:38:14.537Z,52.98
2023-03-30T16:40:44.508Z,54.39
2023-03-30T16:43:11.675Z,54.00
2023-03-30T16:45:39.198Z,54.65
2023-03-30T16:48:06.482Z,55.21
2023-03-30T16:50:56.610Z,54.89
2023-03-30T16:53:23.590Z,55.42
2023-03-30T16:55:50.500Z,56.15
2023-03-30T16:58:17.367Z,56.18
2023-03-30T17:00:53.237Z,56.07
2023-03-30T17:03:20.895Z,57.26
2023-03-30T17:05:48.863Z,57.81
2023-03-30T17:08:24.858Z,58.41
2023-03-30T17:10:54.106Z,58.14
2023-03-30T17:13:21.104Z,57.91
2023-03-30T17:15:48.025Z,57.74
2023-03-30T17:18:22.308Z,57.59
2023-03-30T17:20:52.248Z,58.33
2023-03-30T17:23:20.862Z,57.38
2023-03-30T17:25:49.447Z,59.36
2023-03-30T17:28:28.101Z,59.19
2023-03-30T17:30:58.212Z,59.39
2023-03-30T17:33:26.069Z,59.90
2023-03-30T17:36:07.337Z,59.50
2023-03-30T17:38:34.250Z,59.17
2023-03-30T17:41:01.174Z,60.07
2023-03-30T17:43:28.103Z,59.82
2023-03-30T17:45:55.034Z,58.47
2023-03-30T17:48:22.407Z,58.96
2023-03-30T17:50:50.926Z,59.30
2023-03-30T17:53:20.670Z,58.86
2023-03-30T17:55:50.330Z,58.90
2023-03-30T17:58:34.676Z,59.39
2023-03-30T18:01:07.638Z,58.78
2023-03-30T18:03:36.068Z,59.31
2023-03-30T18:06:03.075Z,59.50
2023-03-30T18:08:30.219Z,59.74
2023-03-30T18:11:01.391Z,59.63
2023-03-30T18:13:29.635Z,59.71
2023-03-30T18:15:59.463Z,59.21
2023-03-30T18:18:30.187Z,58.19
2023-03-30T18:21:03.101Z,59.49
2023-03-30T18:23:33.125Z,58.95
2023-03-30T18:25:59.991Z,59.05
2023-03-30T18:28:27.959Z,59.14
2023-03-30T18:31:00.502Z,60.61
2023-03-30T18:33:27.490Z,60.33
2023-03-30T18:35:56.750Z,59.25
2023-03-30T18:38:25.246Z,59.51
2023-03-30T18:40:58.099Z,60.49
2023-03-30T18:43:28.479Z,60.36
2023-03-30T18:46:00.801Z,60.43
2023-03-30T18:48:28.945Z,60.19
2023-03-30T18:51:01.015Z,59.71
2023-03-30T18:53:29.022Z,59.83
2023-03-30T18:56:00.144Z,60.54
2023-03-30T18:58:30.398Z,59.79
2023-03-30T19:00:57.607Z,59.72
2023-03-30T19:03:27.195Z,59.22
2023-03-30T19:05:54.585Z,59.11
2023-03-30T19:08:24.597Z,60.36
2023-03-30T19:10:55.766Z,59.54
2023-03-30T19:13:25.257Z,60.04
2023-03-30T19:15:53.017Z,59.64
2023-03-30T19:18:20.750Z,58.78
2023-03-30T19:20:49.706Z,59.23
2023-03-30T19:23:17.346Z,59.07
2023-03-30T19:25:45.311Z,59.48
2023-03-30T19:28:14.542Z,59.70
2023-03-30T19:30:41.778Z,58.80
2023-03-30T19:33:13.145Z,58.86
2023-03-30T19:35:41.357Z,58.77
2023-03-30T19:38:09.064Z,59.51
2023-03-30T19:40:38.593Z,58.97
2023-03-30T19:43:05.742Z,59.29
2023-03-30T19:45:33.214Z,58.97
2023-03-30T19:48:00.179Z,59.02
2023-03-30T19:50:28.048Z,58.46
2023-03-30T19:52:56.941Z,58.29
2023-03-30T19:55:23.790Z,58.75
2023-03-30T19:57:50.914Z,58.55
2023-03-30T20:00:18.807Z,58.89
2023-03-30T20:02:49.402Z,58.85
2023-03-30T20:05:17.594Z,58.86
2023-03-30T20:07:46.955Z,58.71
2023-03-30T20:10:21.369Z,58.41
2023-03-30T20:12:49.577Z,58.60
2023-03-30T20:15:17.385Z,59.17
2023-03-30T20:17:44.661Z,59.24
2023-03-30T20:20:16.951Z,58.56
2023-03-30T20:22:44.959Z,58.61
2023-03-30T20:25:14.212Z,58.67
2023-03-30T20:27:41.422Z,59.57
2023-03-30T20:30:09.727Z,59.12
2023-03-30T20:32:36.598Z,58.76
2023-03-30T20:35:04.402Z,59.11
2023-03-30T20:37:31.414Z,59.96
2023-03-30T20:40:04.909Z,58.97
2023-03-30T20:42:32.684Z,58.90
2023-03-30T20:45:00.814Z,58.72
2023-03-30T20:47:30.631Z,59.26
2023-03-30T20:49:58.942Z,59.02
2023-03-30T20:52:27.161Z,58.73
2023-03-30T20:54:54.291Z,59.11
2023-03-30T20:57:22.381Z,58.76
2023-03-30T20:59:50.629Z,58.68
2023-03-30T21:02:19.744Z,58.99
2023-03-30T21:04:47.344Z,58.76
2023-03-30T21:07:16.317Z,59.13
2023-03-30T21:09:43.664Z,58.76
2023-03-30T21:12:11.163Z,59.17
2023-03-30T21:14:38.044Z,59.40
2023-03-30T21:17:04.969Z,59.85
2023-03-30T21:19:32.216Z,60.26
2023-03-30T21:22:00.304Z,60.31
2023-03-30T21:24:27.757Z,60.20
2023-03-30T21:26:54.633Z,60.55
2023-03-30T21:29:22.909Z,60.10
2023-03-30T21:31:50.158Z,60.00
2023-03-30T21:34:18.598Z,59.90
2023-03-30T21:36:46.128Z,59.88
2023-03-30T21:39:13.445Z,60.27
2023-03-30T21:41:40.372Z,59.78
2023-03-30T21:44:07.616Z,59.83
2023-03-30T21:46:34.651Z,60.24
2023-03-30T21:49:01.496Z,60.08
2023-03-30T21:51:30.378Z,60.90
2023-03-30T21:53:58.344Z,60.32
2023-03-30T21:56:29.091Z,61.16
2023-03-30T21:58:56.437Z,60.50
2023-03-30T22:01:24.601Z,60.71
2023-03-30T22:03:53.604Z,60.41
2023-03-30T22:06:21.877Z,60.77
2023-03-30T22:08:49.246Z,60.93
2023-03-30T22:11:23.439Z,60.79
2023-03-30T22:13:52.083Z,61.42
2023-03-30T22:16:23.914Z,61.55
2023-03-30T22:18:51.909Z,62.00
2023-03-30T22:21:25.319Z,62.21
2023-03-30T22:23:55.388Z,61.83
2023-03-30T22:26:22.440Z,61.62
2023-03-30T22:28:49.325Z,61.46
2023-03-30T22:31:16.794Z,61.62
2023-03-30T22:33:44.976Z,61.23
2023-03-30T22:36:25.265Z,61.04
2023-03-30T22:38:52.798Z,61.27
2023-03-30T22:41:23.858Z,61.21
2023-03-30T22:43:52.660Z,61.51
2023-03-30T22:46:20.257Z,62.58
2023-03-30T22:48:49.642Z,61.48
2023-03-30T22:51:23.450Z,61.37
2023-03-30T22:53:50.473Z,61.80
2023-03-30T22:56:17.481Z,61.28
2023-03-30T22:58:44.387Z,61.47
2023-03-30T23:01:11.994Z,61.88
2023-03-30T23:03:39.155Z,62.06
2023-03-30T23:06:06.447Z,62.04
2023-03-30T23:08:33.783Z,62.21
2023-03-30T23:11:04.838Z,62.39
2023-03-30T23:13:38.333Z,62.32
2023-03-30T23:16:06.630Z,62.22
2023-03-30T23:18:34.185Z,62.33
2023-03-30T23:21:06.791Z,62.41
2023-03-30T23:23:40.537Z,62.34
2023-03-30T23:26:10.515Z,63.27
2023-03-30T23:28:41.235Z,63.07
2023-03-30T23:31:15.568Z,63.17
2023-03-30T23:33:43.505Z,63.60
2023-03-30T23:36:13.623Z,63.62
2023-03-30T23:38:41.365Z,63.72
2023-03-30T23:41:08.655Z,63.96
2023-03-30T23:43:35.701Z,63.60
2023-03-30T23:46:02.738Z,63.56
2023-03-30T23:48:29.960Z,63.99
2023-03-30T23:50:57.834Z,63.80
2023-03-30T23:53:26.288Z,63.91
2023-03-30T23:55:53.412Z,64.11
2023-03-30T23:58:20.378Z,64.19
